Time;durP1;ratioP1;P1;durP2;ratioP2;P2;SDS_P1;SDS_P2;PMS_P1;PMS_P2;Temp;Humidity;BMP_temperature;BMP_pressure;BME280_temperature;BME280_humidity;BME280_pressure;Samples;Min_cycle;Max_cycle;Signal;HPM_P1;HPM_P2
2022/03/13 00:01:21;;;;;;;17.43;10.27;;;;;;;;;;5079248;28;20280;-36
2022/03/13 00:03:48;;;;;;;14.83;9.73;;;;;;;;;;5078290;28;20194;-40
2022/03/13 00:06:17;;;;;;;17.93;10.83;;;;;;;;;;5074718;28;20228;-38
2022/03/13 00:08:46;;;;;;;12.70;8.97;;;;;;;;;;5077166;28;20216;-37
2022/03/13 00:11:18;;;;;;;15.30;9.47;;;;;;;;;;5074337;28;20213;-41
2022/03/13 00:13:51;;;;;;;16.60;9.97;;;;;;;;;;5075078;28;20245;-39
2022/03/13 00:16:20;;;;;;;15.67;10.10;;;;;;;;;;5091481;28;20216;-37
2022/03/13 00:18:48;;;;;;;16.27;9.73;;;;;;;;;;5091426;28;20204;-40
2022/03/13 00:21:16;;;;;;;18.17;10.03;;;;;;;;;;5085785;28;20209;-38
2022/03/13 00:23:44;;;;;;;15.87;10.67;;;;;;;;;;5079498;28;20255;-40
2022/03/13 00:26:12;;;;;;;11.57;7.80;;;;;;;;;;5084041;28;20301;-40
2022/03/13 00:28:39;;;;;;;13.43;9.83;;;;;;;;;;5092010;28;20228;-41
2022/03/13 00:31:07;;;;;;;14.43;9.33;;;;;;;;;;5079947;28;20267;-34
2022/03/13 00:33:36;;;;;;;17.93;10.00;;;;;;;;;;5071123;28;20217;-39
2022/03/13 00:36:03;;;;;;;14.40;9.33;;;;;;;;;;5082525;28;20228;-39
2022/03/13 00:38:31;;;;;;;15.10;8.97;;;;;;;;;;5071344;28;20213;-40
2022/03/13 00:40:59;;;;;;;15.80;10.10;;;;;;;;;;5075715;28;20209;-34
2022/03/13 00:43:27;;;;;;;18.70;10.13;;;;;;;;;;5085054;28;20269;-42
2022/03/13 00:45:54;;;;;;;14.57;9.60;;;;;;;;;;5075711;28;20229;-40
2022/03/13 00:48:23;;;;;;;15.37;9.63;;;;;;;;;;5078597;28;20257;-37
2022/03/13 00:50:51;;;;;;;16.00;9.20;;;;;;;;;;5068935;28;20221;-35
2022/03/13 00:53:19;;;;;;;15.33;9.57;;;;;;;;;;5068775;28;20217;-37
2022/03/13 00:55:46;;;;;;;15.57;9.23;;;;;;;;;;5083871;28;20221;-33
2022/03/13 00:58:13;;;;;;;13.90;9.47;;;;;;;;;;5075180;28;20193;-43
2022/03/13 01:00:41;;;;;;;15.23;9.20;;;;;;;;;;5091714;28;20209;-39
2022/03/13 01:03:11;;;;;;;14.83;8.43;;;;;;;;;;5078036;28;20202;-38
2022/03/13 01:05:38;;;;;;;18.43;8.97;;;;;;;;;;5078278;28;20225;-36
2022/03/13 01:08:07;;;;;;;13.20;8.37;;;;;;;;;;5070583;28;20205;-38
2022/03/13 01:10:34;;;;;;;15.33;9.83;;;;;;;;;;5070516;28;20273;-35
2022/03/13 01:13:01;;;;;;;16.37;10.33;;;;;;;;;;5070709;28;20229;-36
2022/03/13 01:15:31;;;;;;;16.67;9.67;;;;;;;;;;5070145;28;20220;-32
2022/03/13 01:17:58;;;;;;;14.20;9.13;;;;;;;;;;5070551;28;20254;-37
2022/03/13 01:20:26;;;;;;;14.60;8.83;;;;;;;;;;5069665;28;20225;-36
2022/03/13 01:22:53;;;;;;;15.40;9.63;;;;;;;;;;5073038;28;20209;-40
2022/03/13 01:25:21;;;;;;;16.90;10.67;;;;;;;;;;5078188;28;20249;-38
2022/03/13 01:27:49;;;;;;;14.97;8.27;;;;;;;;;;5071264;28;20298;-39
2022/03/13 01:30:16;;;;;;;12.60;7.90;;;;;;;;;;5075466;28;20201;-35
2022/03/13 01:32:48;;;;;;;14.73;9.87;;;;;;;;;;5069814;28;20239;-36
2022/03/13 01:35:20;;;;;;;15.13;8.70;;;;;;;;;;5069879;28;20225;-40
2022/03/13 01:37:47;;;;;;;13.20;9.03;;;;;;;;;;5070592;28;20205;-38
2022/03/13 01:40:19;;;;;;;13.70;9.13;;;;;;;;;;5070299;28;20205;-36
2022/03/13 01:42:48;;;;;;;13.40;8.43;;;;;;;;;;5069883;28;20288;-38
2022/03/13 01:45:16;;;;;;;19.47;9.90;;;;;;;;;;5070028;28;20316;-39
2022/03/13 01:47:44;;;;;;;15.00;9.33;;;;;;;;;;5068141;28;20231;-41
2022/03/13 01:50:12;;;;;;;11.33;7.73;;;;;;;;;;5082196;28;20204;-40
2022/03/13 01:52:40;;;;;;;12.67;9.50;;;;;;;;;;5074134;28;20281;-40
2022/03/13 01:55:08;;;;;;;15.40;8.43;;;;;;;;;;5071834;28;20227;-39
2022/03/13 01:57:37;;;;;;;12.33;8.60;;;;;;;;;;5069614;28;20247;-35
2022/03/13 02:00:07;;;;;;;13.57;8.83;;;;;;;;;;5069084;28;20202;-39
2022/03/13 02:02:36;;;;;;;12.53;9.07;;;;;;;;;;5076146;28;20208;-40
2022/03/13 02:05:04;;;;;;;18.87;10.00;;;;;;;;;;5084674;28;20249;-39
2022/03/13 02:07:31;;;;;;;18.57;10.07;;;;;;;;;;5069723;28;20205;-36
2022/03/13 02:09:59;;;;;;;19.87;9.43;;;;;;;;;;5070630;28;20286;-37
2022/03/13 02:12:27;;;;;;;12.00;8.40;;;;;;;;;;5086242;28;20227;-36
2022/03/13 02:14:55;;;;;;;11.40;7.50;;;;;;;;;;5078816;28;20291;-36
2022/03/13 02:17:26;;;;;;;13.87;8.47;;;;;;;;;;5083377;28;20200;-41
2022/03/13 02:19:55;;;;;;;14.47;9.10;;;;;;;;;;5083380;28;20208;-40
2022/03/13 02:22:22;;;;;;;12.17;8.97;;;;;;;;;;5090026;28;20236;-42
2022/03/13 02:24:52;;;;;;;15.30;9.23;;;;;;;;;;5089316;28;20280;-38
2022/03/13 02:27:21;;;;;;;13.27;8.77;;;;;;;;;;5083876;28;20196;-41
2022/03/13 02:29:48;;;;;;;14.90;9.20;;;;;;;;;;5074442;28;20267;-33
2022/03/13 02:32:15;;;;;;;10.90;8.10;;;;;;;;;;5074072;28;20224;-37
2022/03/13 02:34:43;;;;;;;11.57;7.57;;;;;;;;;;5073254;28;20288;-35
2022/03/13 02:37:18;;;;;;;16.23;9.10;;;;;;;;;;5087606;28;20229;-40
2022/03/13 02:39:45;;;;;;;14.07;8.10;;;;;;;;;;5070579;28;20196;-39
2022/03/13 02:42:13;;;;;;;12.33;8.13;;;;;;;;;;5068749;28;20255;-35
2022/03/13 02:44:41;;;;;;;12.43;7.33;;;;;;;;;;5068010;28;20567;-35
2022/03/13 02:47:08;;;;;;;12.63;8.27;;;;;;;;;;5068874;28;20190;-39
2022/03/13 02:49:35;;;;;;;16.17;8.00;;;;;;;;;;5069245;28;20261;-39
2022/03/13 02:52:04;;;;;;;13.50;8.30;;;;;;;;;;5084679;28;20345;-40
2022/03/13 02:54:32;;;;;;;12.93;8.37;;;;;;;;;;5073273;28;20253;-37
2022/03/13 02:56:59;;;;;;;13.20;8.53;;;;;;;;;;5083546;28;20213;-36
2022/03/13 02:59:28;;;;;;;13.33;8.23;;;;;;;;;;5081424;28;20460;-40
2022/03/13 03:01:55;;;;;;;13.97;7.83;;;;;;;;;;5072487;28;20292;-39
2022/03/13 03:04:24;;;;;;;13.20;8.03;;;;;;;;;;5085212;28;20322;-41
2022/03/13 03:06:52;;;;;;;12.17;8.13;;;;;;;;;;5069104;28;20283;-39
2022/03/13 03:09:19;;;;;;;12.90;8.17;;;;;;;;;;5074119;28;20220;-39
2022/03/13 03:11:47;;;;;;;11.27;6.87;;;;;;;;;;5088613;28;20200;-37
2022/03/13 03:14:15;;;;;;;14.83;7.53;;;;;;;;;;5076021;28;20284;-35
2022/03/13 03:16:44;;;;;;;13.20;7.70;;;;;;;;;;5068532;28;20205;-39
2022/03/13 03:19:11;;;;;;;13.30;8.27;;;;;;;;;;5067731;28;20201;-39
2022/03/13 03:21:39;;;;;;;12.40;7.60;;;;;;;;;;5076009;28;20258;-42
2022/03/13 03:24:18;;;;;;;13.07;8.50;;;;;;;;;;5077233;28;20209;-34
2022/03/13 03:26:45;;;;;;;12.77;8.23;;;;;;;;;;5068758;28;20220;-34
2022/03/13 03:29:12;;;;;;;13.33;8.07;;;;;;;;;;5079603;28;20205;-39
2022/03/13 03:31:45;;;;;;;13.53;7.77;;;;;;;;;;5088652;28;20192;-36
2022/03/13 03:34:13;;;;;;;9.47;7.00;;;;;;;;;;5085794;28;20228;-36
2022/03/13 03:36:41;;;;;;;13.37;7.27;;;;;;;;;;5068272;28;20270;-36
2022/03/13 03:39:09;;;;;;;8.97;6.50;;;;;;;;;;5068696;28;20201;-42
2022/03/13 03:41:36;;;;;;;10.83;7.03;;;;;;;;;;5069455;28;20255;-38
2022/03/13 03:44:04;;;;;;;10.73;7.43;;;;;;;;;;5071003;28;20202;-36
2022/03/13 03:46:31;;;;;;;13.20;8.13;;;;;;;;;;5068872;28;20252;-38
2022/03/13 03:48:59;;;;;;;11.67;7.53;;;;;;;;;;5082043;28;20231;-35
2022/03/13 03:51:27;;;;;;;14.20;8.13;;;;;;;;;;5083223;28;20206;-35
2022/03/13 03:53:54;;;;;;;10.73;7.10;;;;;;;;;;5070386;28;20267;-39
2022/03/13 03:56:21;;;;;;;11.27;7.60;;;;;;;;;;5068813;28;20283;-36
2022/03/13 03:58:49;;;;;;;12.17;7.73;;;;;;;;;;5068923;28;20201;-40
2022/03/13 04:01:16;;;;;;;12.67;7.77;;;;;;;;;;5069581;28;20501;-35
2022/03/13 04:03:44;;;;;;;11.50;8.00;;;;;;;;;;5084897;28;20219;-39
2022/03/13 04:06:12;;;;;;;8.97;6.23;;;;;;;;;;5069122;28;20224;-37
2022/03/13 04:08:39;;;;;;;11.17;6.57;;;;;;;;;;5068555;28;20209;-39
2022/03/13 04:11:08;;;;;;;10.53;6.77;;;;;;;;;;5081780;28;20205;-41
2022/03/13 04:13:38;;;;;;;10.93;6.03;;;;;;;;;;5079605;28;20248;-39
2022/03/13 04:16:06;;;;;;;9.63;6.07;;;;;;;;;;5072673;28;20224;-40
2022/03/13 04:18:33;;;;;;;10.87;6.53;;;;;;;;;;5076434;28;20261;-39
2022/03/13 04:21:00;;;;;;;10.10;6.90;;;;;;;;;;5072915;28;20209;-39
2022/03/13 04:23:29;;;;;;;9.17;6.43;;;;;;;;;;5089497;28;20262;-42
2022/03/13 04:25:56;;;;;;;10.80;7.50;;;;;;;;;;5087528;28;20254;-36
2022/03/13 04:28:24;;;;;;;11.80;7.53;;;;;;;;;;5090244;28;20256;-38
2022/03/13 04:30:59;;;;;;;9.23;6.90;;;;;;;;;;5074075;28;20302;-40
2022/03/13 04:33:26;;;;;;;13.60;7.87;;;;;;;;;;5072345;28;20209;-40
2022/03/13 04:35:57;;;;;;;9.23;6.27;;;;;;;;;;5071967;28;20315;-38
2022/03/13 04:38:26;;;;;;;10.13;6.40;;;;;;;;;;5078616;28;20558;-36
2022/03/13 04:40:55;;;;;;;9.13;6.23;;;;;;;;;;5073569;28;20208;-32
2022/03/13 04:43:23;;;;;;;9.43;6.77;;;;;;;;;;5071718;28;20201;-36
2022/03/13 04:45:51;;;;;;;10.40;7.43;;;;;;;;;;5077135;28;20217;-36
2022/03/13 04:48:18;;;;;;;10.17;7.13;;;;;;;;;;5076692;28;20193;-42
2022/03/13 04:50:46;;;;;;;9.60;6.40;;;;;;;;;;5091067;28;20224;-37
2022/03/13 04:53:13;;;;;;;11.27;7.17;;;;;;;;;;5089019;28;20265;-38
2022/03/13 04:55:40;;;;;;;9.53;7.30;;;;;;;;;;5086314;28;20256;-39
2022/03/13 04:58:09;;;;;;;11.43;6.73;;;;;;;;;;5074725;28;20266;-35
2022/03/13 05:00:37;;;;;;;10.57;6.27;;;;;;;;;;5092167;28;20211;-37
2022/03/13 05:03:05;;;;;;;11.20;7.80;;;;;;;;;;5086617;28;20299;-33
2022/03/13 05:05:32;;;;;;;10.43;6.80;;;;;;;;;;5073365;28;20217;-41
2022/03/13 05:08:00;;;;;;;9.47;6.60;;;;;;;;;;5071066;28;20216;-36
2022/03/13 05:10:35;;;;;;;10.20;6.57;;;;;;;;;;5071490;28;20229;-32
2022/03/13 05:13:03;;;;;;;8.97;6.43;;;;;;;;;;5079170;28;20213;-37
2022/03/13 05:15:32;;;;;;;12.33;7.40;;;;;;;;;;5075258;28;20229;-36
2022/03/13 05:18:00;;;;;;;14.50;7.73;;;;;;;;;;5079323;28;20215;-38
2022/03/13 05:20:27;;;;;;;11.30;7.77;;;;;;;;;;5079012;28;20205;-35
2022/03/13 05:22:54;;;;;;;9.57;6.40;;;;;;;;;;5071166;28;20259;-35
2022/03/13 05:25:23;;;;;;;11.10;7.07;;;;;;;;;;5072638;28;20282;-35
2022/03/13 05:27:50;;;;;;;9.80;5.73;;;;;;;;;;5074415;28;20215;-37
2022/03/13 05:30:18;;;;;;;8.93;6.43;;;;;;;;;;5080368;28;20213;-39
2022/03/13 05:32:46;;;;;;;10.60;6.87;;;;;;;;;;5070852;28;20201;-38
2022/03/13 05:35:14;;;;;;;7.57;5.47;;;;;;;;;;5071089;28;20306;-36
2022/03/13 05:37:41;;;;;;;9.73;6.20;;;;;;;;;;5070360;28;20212;-34
2022/03/13 05:40:13;;;;;;;9.70;6.70;;;;;;;;;;5070644;28;20208;-34
2022/03/13 05:42:42;;;;;;;10.00;6.73;;;;;;;;;;5087220;28;20745;-36
2022/03/13 05:45:11;;;;;;;7.07;5.53;;;;;;;;;;5090572;28;20311;-40
2022/03/13 05:47:44;;;;;;;10.33;7.00;;;;;;;;;;5077535;28;20204;-39
2022/03/13 05:50:13;;;;;;;9.83;6.60;;;;;;;;;;5082173;28;20200;-40
2022/03/13 05:52:41;;;;;;;12.37;7.47;;;;;;;;;;5073123;28;20262;-38
2022/03/13 05:55:09;;;;;;;9.83;7.03;;;;;;;;;;5070888;28;20221;-36
2022/03/13 05:57:36;;;;;;;10.10;6.40;;;;;;;;;;5078308;28;20308;-38
2022/03/13 06:00:05;;;;;;;10.20;6.10;;;;;;;;;;5087966;28;20265;-32
2022/03/13 06:02:32;;;;;;;8.37;4.93;;;;;;;;;;5080848;28;20294;-34
2022/03/13 06:05:00;;;;;;;7.23;5.57;;;;;;;;;;5090178;28;20267;-38
2022/03/13 06:07:28;;;;;;;6.77;5.00;;;;;;;;;;5078158;28;20235;-35
2022/03/13 06:09:57;;;;;;;7.00;5.60;;;;;;;;;;5071091;28;20205;-37
2022/03/13 06:12:24;;;;;;;9.30;6.20;;;;;;;;;;5069683;28;20209;-35
2022/03/13 06:14:52;;;;;;;9.97;6.27;;;;;;;;;;5069692;28;20252;-34
2022/03/13 06:17:19;;;;;;;7.67;5.83;;;;;;;;;;5070244;28;20312;-34
2022/03/13 06:19:47;;;;;;;11.17;6.93;;;;;;;;;;5077854;28;20222;-40
2022/03/13 06:22:14;;;;;;;10.37;7.03;;;;;;;;;;5083415;28;20246;-38
2022/03/13 06:24:42;;;;;;;9.23;6.47;;;;;;;;;;5075194;28;20229;-36
2022/03/13 06:27:10;;;;;;;10.37;6.63;;;;;;;;;;5070184;28;20312;-38
2022/03/13 06:29:38;;;;;;;8.73;6.00;;;;;;;;;;5070613;28;20282;-36
2022/03/13 06:32:05;;;;;;;10.63;7.57;;;;;;;;;;5073507;28;20250;-37
2022/03/13 06:34:33;;;;;;;11.23;7.40;;;;;;;;;;5088893;28;20226;-37
2022/03/13 06:37:00;;;;;;;9.60;7.10;;;;;;;;;;5076356;28;20256;-38
2022/03/13 06:39:27;;;;;;;9.50;7.07;;;;;;;;;;5077851;28;20209;-36
2022/03/13 06:41:56;;;;;;;8.57;6.83;;;;;;;;;;5088207;28;20235;-35
2022/03/13 06:44:24;;;;;;;11.07;6.80;;;;;;;;;;5079932;28;20284;-39
2022/03/13 06:46:51;;;;;;;9.00;7.20;;;;;;;;;;5071775;28;20209;-34
2022/03/13 06:49:20;;;;;;;9.10;6.33;;;;;;;;;;5082702;28;20200;-39
2022/03/13 06:51:47;;;;;;;10.87;7.50;;;;;;;;;;5089531;28;20204;-36
2022/03/13 06:54:14;;;;;;;10.07;6.90;;;;;;;;;;5087178;28;20565;-31
2022/03/13 06:56:42;;;;;;;9.33;7.13;;;;;;;;;;5079174;28;20221;-39
2022/03/13 06:59:10;;;;;;;13.07;7.40;;;;;;;;;;5078914;28;20209;-38
2022/03/13 07:01:38;;;;;;;9.97;7.17;;;;;;;;;;5069549;28;20290;-37
2022/03/13 07:04:05;;;;;;;11.20;6.73;;;;;;;;;;5075169;28;20262;-41
2022/03/13 07:06:33;;;;;;;11.57;6.90;;;;;;;;;;5082780;28;20217;-42
2022/03/13 07:09:00;;;;;;;12.63;8.00;;;;;;;;;;5069611;28;20263;-38
2022/03/13 07:11:28;;;;;;;10.13;6.77;;;;;;;;;;5069866;28;20301;-35
2022/03/13 07:13:55;;;;;;;8.10;6.93;;;;;;;;;;5076162;28;20237;-41
2022/03/13 07:16:24;;;;;;;15.13;7.93;;;;;;;;;;5068276;28;20217;-39
2022/03/13 07:18:51;;;;;;;10.47;7.20;;;;;;;;;;5068920;28;20213;-38
2022/03/13 07:21:19;;;;;;;8.17;6.73;;;;;;;;;;5070297;28;20338;-42
2022/03/13 07:23:46;;;;;;;8.27;6.47;;;;;;;;;;5080781;28;20246;-37
2022/03/13 07:26:14;;;;;;;10.07;7.07;;;;;;;;;;5076104;28;20228;-45
2022/03/13 07:28:41;;;;;;;7.83;6.50;;;;;;;;;;5069095;28;20349;-37
2022/03/13 07:31:08;;;;;;;9.27;6.37;;;;;;;;;;5072765;28;20208;-41
2022/03/13 07:33:37;;;;;;;8.40;6.60;;;;;;;;;;5080639;28;20254;-39
2022/03/13 07:36:04;;;;;;;11.37;7.00;;;;;;;;;;5069205;28;20254;-44
2022/03/13 07:38:32;;;;;;;10.67;6.80;;;;;;;;;;5067460;28;20217;-42
2022/03/13 07:40:59;;;;;;;9.93;6.97;;;;;;;;;;5074121;28;20208;-38
2022/03/13 07:43:26;;;;;;;8.30;6.40;;;;;;;;;;5088416;28;20227;-41
2022/03/13 07:45:53;;;;;;;10.03;6.73;;;;;;;;;;5088850;28;20277;-40
2022/03/13 07:48:21;;;;;;;9.70;7.17;;;;;;;;;;5078782;28;20229;-38
2022/03/13 07:50:49;;;;;;;9.90;6.30;;;;;;;;;;5073089;28;20694;-37
2022/03/13 07:53:19;;;;;;;9.03;6.50;;;;;;;;;;5080413;28;20263;-38
2022/03/13 07:55:47;;;;;;;7.73;6.00;;;;;;;;;;5070485;28;20262;-38
2022/03/13 07:58:14;;;;;;;6.97;5.50;;;;;;;;;;5084579;28;20201;-41
2022/03/13 08:00:41;;;;;;;8.03;6.10;;;;;;;;;;5075747;28;20193;-44
2022/03/13 08:03:08;;;;;;;7.57;6.07;;;;;;;;;;5072289;28;20274;-42
2022/03/13 08:05:36;;;;;;;8.27;6.40;;;;;;;;;;5072037;28;20267;-39
2022/03/13 08:08:04;;;;;;;8.53;6.03;;;;;;;;;;5074033;28;20259;-43
2022/03/13 08:10:35;;;;;;;8.87;6.43;;;;;;;;;;5073274;28;20608;-42
2022/03/13 08:13:16;;;;;;;8.70;5.43;;;;;;;;;;5080697;28;20291;-40
2022/03/13 08:15:44;;;;;;;9.40;5.93;;;;;;;;;;5073978;28;20213;-35
2022/03/13 08:18:21;;;;;;;9.50;5.70;;;;;;;;;;5075174;28;20297;-41
2022/03/13 08:20:49;;;;;;;6.20;5.50;;;;;;;;;;5075525;28;20201;-44
2022/03/13 08:23:18;;;;;;;8.20;5.93;;;;;;;;;;5084424;28;20301;-36
2022/03/13 08:25:48;;;;;;;6.80;5.47;;;;;;;;;;5083335;28;20259;-41
2022/03/13 08:28:16;;;;;;;7.97;5.90;;;;;;;;;;5086383;28;20215;-41
2022/03/13 08:30:44;;;;;;;7.87;5.60;;;;;;;;;;5073056;28;20219;-35
2022/03/13 08:33:12;;;;;;;9.37;6.10;;;;;;;;;;5077529;28;20286;-35
2022/03/13 08:35:58;;;;;;;8.30;5.60;;;;;;;;;;5081551;28;20265;-40
2022/03/13 08:38:42;;;;;;;7.13;5.77;;;;;;;;;;5079104;28;20218;-39
2022/03/13 08:41:33;;;;;;;8.70;6.00;;;;;;;;;;5084898;28;20279;-41
2022/03/13 08:46:53;;;;;;;7.57;6.40;;;;;;;;;;5065893;28;20240;-42
2022/03/13 08:49:20;;;;;;;7.63;6.33;;;;;;;;;;5080973;28;20193;-37
2022/03/13 08:51:49;;;;;;;7.77;6.03;;;;;;;;;;5089344;28;20231;-39
2022/03/13 08:54:34;;;;;;;8.33;5.90;;;;;;;;;;5083163;28;20205;-39
2022/03/13 08:57:02;;;;;;;9.97;5.97;;;;;;;;;;5084309;28;20282;-39
2022/03/13 08:59:37;;;;;;;7.77;6.07;;;;;;;;;;5077214;28;20205;-43
2022/03/13 09:02:29;;;;;;;9.40;6.50;;;;;;;;;;5084412;28;20631;-41
2022/03/13 09:05:03;;;;;;;10.47;5.90;;;;;;;;;;5077623;28;20234;-42
2022/03/13 09:07:30;;;;;;;8.17;5.90;;;;;;;;;;5085250;28;20197;-39
2022/03/13 09:10:13;;;;;;;8.13;5.97;;;;;;;;;;5079981;28;20209;-39
2022/03/13 09:12:45;;;;;;;8.73;6.53;;;;;;;;;;5080833;28;20201;-43
2022/03/13 09:15:14;;;;;;;12.40;6.53;;;;;;;;;;5079390;28;20236;-42
2022/03/13 09:17:53;;;;;;;9.17;6.07;;;;;;;;;;5079952;28;20240;-42
2022/03/13 09:20:32;;;;;;;8.90;6.17;;;;;;;;;;5079217;28;20205;-37
2022/03/13 09:23:06;;;;;;;9.00;6.43;;;;;;;;;;5078985;28;20206;-38
2022/03/13 09:25:44;;;;;;;8.00;5.87;;;;;;;;;;5077197;28;20221;-42
2022/03/13 09:31:14;;;;;;;11.00;6.13;;;;;;;;;;5078584;28;20630;-40
2022/03/13 09:33:45;;;;;;;8.90;6.43;;;;;;;;;;5077671;28;20212;-36
2022/03/13 09:36:26;;;;;;;8.90;6.80;;;;;;;;;;5077986;28;20311;-39
2022/03/13 09:39:04;;;;;;;9.87;6.67;;;;;;;;;;5092512;28;20208;-41
2022/03/13 09:41:46;;;;;;;8.07;5.70;;;;;;;;;;5074713;28;20205;-41
2022/03/13 09:44:14;;;;;;;9.20;6.20;;;;;;;;;;5078286;28;20200;-40
2022/03/13 09:46:41;;;;;;;10.60;6.87;;;;;;;;;;5091637;28;20208;-41
2022/03/13 09:49:08;;;;;;;10.93;6.40;;;;;;;;;;5082996;28;20214;-39
2022/03/13 09:51:36;;;;;;;12.60;7.77;;;;;;;;;;5086389;28;20261;-37
2022/03/13 09:54:03;;;;;;;9.97;6.67;;;;;;;;;;5079553;28;20263;-43
2022/03/13 09:56:33;;;;;;;9.90;7.47;;;;;;;;;;5071678;28;20237;-42
2022/03/13 09:59:01;;;;;;;9.10;6.40;;;;;;;;;;5083909;28;20197;-40
2022/03/13 10:01:29;;;;;;;9.20;6.67;;;;;;;;;;5085482;28;20216;-38
2022/03/13 10:03:56;;;;;;;9.83;6.33;;;;;;;;;;5090833;28;20201;-38
2022/03/13 10:06:25;;;;;;;10.83;7.30;;;;;;;;;;5086824;28;20270;-39
2022/03/13 10:08:52;;;;;;;11.00;7.67;;;;;;;;;;5076655;28;20212;-36
2022/03/13 10:11:32;;;;;;;11.17;7.53;;;;;;;;;;5086776;28;20205;-39
2022/03/13 10:14:10;;;;;;;14.07;7.90;;;;;;;;;;5072854;28;20217;-41
2022/03/13 10:16:38;;;;;;;12.00;7.53;;;;;;;;;;5085470;28;20224;-40
2022/03/13 10:19:15;;;;;;;10.77;7.70;;;;;;;;;;5077585;28;20198;-40
2022/03/13 10:21:57;;;;;;;10.97;7.77;;;;;;;;;;5069977;28;20291;-39
2022/03/13 10:24:25;;;;;;;14.07;8.60;;;;;;;;;;5067638;28;20310;-37
2022/03/13 10:26:56;;;;;;;12.73;8.20;;;;;;;;;;5069253;28;20235;-41
2022/03/13 10:29:33;;;;;;;14.83;8.17;;;;;;;;;;5073536;28;20292;-38
2022/03/13 10:32:02;;;;;;;12.43;8.00;;;;;;;;;;5079976;28;20232;-37
2022/03/13 10:34:30;;;;;;;11.10;7.37;;;;;;;;;;5075234;28;20205;-38
2022/03/13 10:36:57;;;;;;;11.13;7.60;;;;;;;;;;5079401;28;20302;-37
2022/03/13 10:40:06;;;;;;;12.87;8.33;;;;;;;;;;5140475;27;20554;-37
2022/03/13 10:42:33;;;;;;;13.07;8.23;;;;;;;;;;5140553;27;20724;-37
2022/03/13 10:45:06;;;;;;;14.83;8.10;;;;;;;;;;5146146;27;20219;-39
2022/03/13 10:47:33;;;;;;;15.20;8.80;;;;;;;;;;5148032;27;20206;-37
2022/03/13 10:50:00;;;;;;;17.10;8.47;;;;;;;;;;5139816;27;20283;-38
2022/03/13 10:52:30;;;;;;;16.20;9.80;;;;;;;;;;5147708;27;20203;-36
2022/03/13 10:55:01;;;;;;;14.93;9.73;;;;;;;;;;5147275;27;20214;-32
2022/03/13 10:57:29;;;;;;;13.57;8.97;;;;;;;;;;5140711;27;20201;-35
2022/03/13 11:00:09;;;;;;;15.20;9.67;;;;;;;;;;5135817;27;20210;-42
2022/03/13 11:02:38;;;;;;;17.90;10.23;;;;;;;;;;5131313;27;20290;-39
2022/03/13 11:05:06;;;;;;;18.60;9.60;;;;;;;;;;5146135;27;20219;-34
2022/03/13 11:07:34;;;;;;;17.03;9.87;;;;;;;;;;5147610;27;20207;-34
2022/03/13 11:10:06;;;;;;;17.97;10.00;;;;;;;;;;5147942;27;20221;-37
2022/03/13 11:12:34;;;;;;;19.77;10.33;;;;;;;;;;5136799;27;20214;-38
2022/03/13 11:15:03;;;;;;;17.97;10.40;;;;;;;;;;5146983;27;20276;-35
2022/03/13 11:17:32;;;;;;;14.47;9.47;;;;;;;;;;5168627;27;20198;-35
2022/03/13 11:20:00;;;;;;;14.87;9.60;;;;;;;;;;5162645;27;20190;-37
2022/03/13 11:22:28;;;;;;;16.60;9.93;;;;;;;;;;5150051;27;20199;-36
2022/03/13 11:24:57;;;;;;;16.30;10.30;;;;;;;;;;5147109;27;20218;-39
2022/03/13 11:27:26;;;;;;;18.57;11.33;;;;;;;;;;5145049;27;20260;-33
2022/03/13 11:29:57;;;;;;;15.10;9.47;;;;;;;;;;5142186;27;20246;-36
2022/03/13 11:32:31;;;;;;;17.63;11.73;;;;;;;;;;5147784;27;20195;-39
2022/03/13 11:35:24;;;;;;;21.27;11.53;;;;;;;;;;5147004;27;20231;-39
2022/03/13 11:37:52;;;;;;;19.73;11.87;;;;;;;;;;5139543;27;20322;-35
2022/03/13 11:40:21;;;;;;;17.90;11.40;;;;;;;;;;5153306;27;20252;-37
2022/03/13 11:42:50;;;;;;;21.77;12.60;;;;;;;;;;5150554;27;20230;-40
2022/03/13 11:45:34;;;;;;;21.47;12.07;;;;;;;;;;5133189;27;20223;-38
2022/03/13 11:48:19;;;;;;;20.37;12.30;;;;;;;;;;5157991;27;20281;-39
2022/03/13 11:50:47;;;;;;;22.70;12.97;;;;;;;;;;5129892;27;20210;-38
2022/03/13 11:53:17;;;;;;;20.10;12.43;;;;;;;;;;5128516;27;20279;-40
2022/03/13 11:56:03;;;;;;;20.33;12.80;;;;;;;;;;5149055;27;20271;-36
2022/03/13 11:58:42;;;;;;;21.47;11.20;;;;;;;;;;5128803;27;20216;-34
2022/03/13 12:01:12;;;;;;;20.37;11.37;;;;;;;;;;5112730;28;20196;-38
2022/03/13 12:03:40;;;;;;;18.70;12.80;;;;;;;;;;5119064;27;20207;-39
2022/03/13 12:06:08;;;;;;;17.40;11.73;;;;;;;;;;5132871;27;20307;-35
2022/03/13 12:08:53;;;;;;;24.37;13.30;;;;;;;;;;5134027;27;20195;-40
2022/03/13 12:11:43;;;;;;;22.37;13.90;;;;;;;;;;5111971;27;20212;-40
2022/03/13 12:14:12;;;;;;;20.30;13.00;;;;;;;;;;5124864;27;20299;-37
2022/03/13 12:16:41;;;;;;;24.40;12.60;;;;;;;;;;5121976;27;20304;-35
2022/03/13 12:19:10;;;;;;;21.93;13.90;;;;;;;;;;5112493;28;20224;-32
2022/03/13 12:21:38;;;;;;;22.20;12.23;;;;;;;;;;5128146;27;20310;-34
2022/03/13 12:24:15;;;;;;;21.00;12.97;;;;;;;;;;5139441;27;20199;-36
2022/03/13 12:26:43;;;;;;;22.10;12.47;;;;;;;;;;5129382;27;20199;-33
2022/03/13 12:29:13;;;;;;;18.47;12.10;;;;;;;;;;5123492;27;20203;-38
2022/03/13 12:31:41;;;;;;;20.53;11.73;;;;;;;;;;5130156;27;20203;-36
2022/03/13 12:34:09;;;;;;;19.77;13.30;;;;;;;;;;5132555;27;20260;-39
2022/03/13 12:36:37;;;;;;;19.63;12.53;;;;;;;;;;5117321;27;20281;-38
2022/03/13 12:39:10;;;;;;;18.13;10.23;;;;;;;;;;5141064;27;20219;-35
2022/03/13 12:41:43;;;;;;;18.60;12.27;;;;;;;;;;5132585;27;20227;-36
2022/03/13 12:44:13;;;;;;;18.10;12.17;;;;;;;;;;5125676;27;20583;-39
2022/03/13 12:46:41;;;;;;;20.07;12.47;;;;;;;;;;5132693;27;20267;-39
2022/03/13 12:49:12;;;;;;;16.83;11.00;;;;;;;;;;5131895;27;20198;-35
2022/03/13 12:51:41;;;;;;;18.03;12.03;;;;;;;;;;5133571;27;20234;-32
2022/03/13 12:54:10;;;;;;;19.93;11.70;;;;;;;;;;5131489;27;20521;-39
2022/03/13 12:56:39;;;;;;;18.60;12.13;;;;;;;;;;5132715;27;20222;-37
2022/03/13 12:59:12;;;;;;;19.13;11.30;;;;;;;;;;5136001;27;20223;-35
2022/03/13 13:01:44;;;;;;;18.93;11.77;;;;;;;;;;5130475;27;20218;-35
2022/03/13 13:04:14;;;;;;;19.03;11.23;;;;;;;;;;5133147;27;20208;-38
2022/03/13 13:06:42;;;;;;;17.20;10.70;;;;;;;;;;5133480;27;20202;-35
2022/03/13 13:09:09;;;;;;;16.87;10.47;;;;;;;;;;5130663;27;20215;-36
2022/03/13 13:11:37;;;;;;;16.37;11.33;;;;;;;;;;5131286;27;20227;-36
2022/03/13 13:14:05;;;;;;;16.50;10.87;;;;;;;;;;5148470;27;20191;-39
2022/03/13 13:16:33;;;;;;;19.27;10.53;;;;;;;;;;5132230;27;20279;-39
2022/03/13 13:19:02;;;;;;;21.10;10.83;;;;;;;;;;5128003;27;20273;-39
2022/03/13 13:21:39;;;;;;;16.80;10.53;;;;;;;;;;5128587;27;20218;-38
2022/03/13 13:24:21;;;;;;;16.83;10.47;;;;;;;;;;5151660;27;20197;-39
2022/03/13 13:26:48;;;;;;;14.83;9.70;;;;;;;;;;5139808;27;20441;-35
2022/03/13 13:29:15;;;;;;;15.53;10.27;;;;;;;;;;5122674;27;20284;-38
2022/03/13 13:31:43;;;;;;;15.93;10.10;;;;;;;;;;5120344;27;20196;-36
2022/03/13 13:34:38;;;;;;;15.70;10.27;;;;;;;;;;5119588;27;20204;-34
2022/03/13 13:37:09;;;;;;;16.80;10.30;;;;;;;;;;5121001;27;20281;-35
2022/03/13 13:39:36;;;;;;;13.37;8.90;;;;;;;;;;5126132;27;20286;-38
2022/03/13 13:42:03;;;;;;;16.10;9.37;;;;;;;;;;5130599;27;20252;-37
2022/03/13 13:44:31;;;;;;;16.00;9.70;;;;;;;;;;5132181;27;20230;-39
2022/03/13 13:47:05;;;;;;;14.13;9.77;;;;;;;;;;5142663;27;20230;-35
2022/03/13 13:49:34;;;;;;;15.27;9.40;;;;;;;;;;5136090;27;20271;-35
2022/03/13 13:52:10;;;;;;;14.83;8.90;;;;;;;;;;5122939;27;20211;-35
2022/03/13 13:54:38;;;;;;;13.83;9.47;;;;;;;;;;5137468;27;20217;-35
2022/03/13 13:57:05;;;;;;;15.00;9.63;;;;;;;;;;5151834;27;20206;-35
2022/03/13 13:59:34;;;;;;;16.47;9.57;;;;;;;;;;5147982;27;20261;-37
2022/03/13 14:02:13;;;;;;;16.83;9.80;;;;;;;;;;5135453;27;20206;-37
2022/03/13 14:04:42;;;;;;;14.70;9.27;;;;;;;;;;5138740;27;20226;-36
2022/03/13 14:07:11;;;;;;;14.60;9.40;;;;;;;;;;5153380;27;20203;-35
2022/03/13 14:09:38;;;;;;;14.20;9.37;;;;;;;;;;5127693;27;20198;-32
2022/03/13 14:12:06;;;;;;;15.43;9.53;;;;;;;;;;5142307;27;20213;-32
2022/03/13 14:14:33;;;;;;;14.30;9.23;;;;;;;;;;5152136;27;20257;-36
2022/03/13 14:17:01;;;;;;;13.80;9.10;;;;;;;;;;5130988;27;20236;-40
2022/03/13 14:19:29;;;;;;;15.23;9.13;;;;;;;;;;5130150;27;20215;-40
2022/03/13 14:21:58;;;;;;;14.37;9.33;;;;;;;;;;5139844;27;20202;-37
2022/03/13 14:24:25;;;;;;;15.40;9.03;;;;;;;;;;5130878;27;20228;-40
2022/03/13 14:26:54;;;;;;;13.97;9.07;;;;;;;;;;5116853;27;20204;-34
2022/03/13 14:29:21;;;;;;;14.40;9.73;;;;;;;;;;5130600;27;20223;-41
2022/03/13 14:31:49;;;;;;;16.03;9.60;;;;;;;;;;5148912;27;20202;-37
2022/03/13 14:34:16;;;;;;;13.50;8.97;;;;;;;;;;5148517;27;20270;-36
2022/03/13 14:36:47;;;;;;;13.20;9.77;;;;;;;;;;5125089;27;20275;-35
2022/03/13 14:39:16;;;;;;;15.03;9.60;;;;;;;;;;5131973;27;20223;-38
2022/03/13 14:41:43;;;;;;;15.43;10.47;;;;;;;;;;5130605;27;20206;-34
2022/03/13 14:44:11;;;;;;;15.87;9.70;;;;;;;;;;5111257;27;20223;-36
2022/03/13 14:46:39;;;;;;;11.73;8.20;;;;;;;;;;5108370;27;21911;-34
2022/03/13 14:49:08;;;;;;;13.23;8.80;;;;;;;;;;5108979;27;20283;-35
2022/03/13 14:51:35;;;;;;;15.43;9.47;;;;;;;;;;5109194;28;20299;-33